sensor_id;sensor_type;location;lat;lon;timestamp;P1;durP1;ratioP1;P2;durP2;ratioP2
3704;SDS011;1868;48.918;9.438;2024-01-30T00:01:17;19.03;;;10.03;;
3704;SDS011;1868;48.918;9.438;2024-01-30T00:03:46;22.30;;;10.97;;
3704;SDS011;1868;48.918;9.438;2024-01-30T00:06:18;18.77;;;10.00;;
3704;SDS011;1868;48.918;9.438;2024-01-30T00:08:47;18.10;;;11.00;;
3704;SDS011;1868;48.918;9.438;2024-01-30T00:11:17;19.20;;;11.77;;
3704;SDS011;1868;48.918;9.438;2024-01-30T00:13:47;16.80;;;11.00;;
3704;SDS011;1868;48.918;9.438;2024-01-30T00:16:21;18.77;;;10.07;;
3704;SDS011;1868;48.918;9.438;2024-01-30T00:18:53;16.43;;;9.70;;
3704;SDS011;1868;48.918;9.438;2024-01-30T00:21:22;18.13;;;9.03;;
3704;SDS011;1868;48.918;9.438;2024-01-30T00:23:50;18.67;;;10.30;;
3704;SDS011;1868;48.918;9.438;2024-01-30T00:26:21;19.10;;;12.33;;
3704;SDS011;1868;48.918;9.438;2024-01-30T00:28:50;13.50;;;8.80;;
3704;SDS011;1868;48.918;9.438;2024-01-30T00:31:19;16.77;;;11.27;;
3704;SDS011;1868;48.918;9.438;2024-01-30T00:33:49;13.40;;;7.93;;
3704;SDS011;1868;48.918;9.438;2024-01-30T00:36:18;15.20;;;9.60;;
3704;SDS011;1868;48.918;9.438;2024-01-30T00:38:47;15.90;;;9.87;;
3704;SDS011;1868;48.918;9.438;2024-01-30T00:41:18;16.93;;;10.33;;
3704;SDS011;1868;48.918;9.438;2024-01-30T00:43:48;13.33;;;8.77;;
3704;SDS011;1868;48.918;9.438;2024-01-30T00:46:17;15.30;;;9.57;;
3704;SDS011;1868;48.918;9.438;2024-01-30T00:48:48;20.70;;;9.90;;
3704;SDS011;1868;48.918;9.438;2024-01-30T00:51:17;13.93;;;9.37;;
3704;SDS011;1868;48.918;9.438;2024-01-30T00:53:48;18.20;;;10.73;;
3704;SDS011;1868;48.918;9.438;2024-01-30T00:56:18;16.23;;;10.70;;
3704;SDS011;1868;48.918;9.438;2024-01-30T00:58:49;14.90;;;9.90;;
3704;SDS011;1868;48.918;9.438;2024-01-30T01:01:18;15.27;;;9.97;;
3704;SDS011;1868;48.918;9.438;2024-01-30T01:03:48;14.90;;;9.30;;
3704;SDS011;1868;48.918;9.438;2024-01-30T01:06:18;16.30;;;10.10;;
3704;SDS011;1868;48.918;9.438;2024-01-30T01:08:48;15.13;;;10.37;;
3704;SDS011;1868;48.918;9.438;2024-01-30T01:11:18;16.63;;;10.83;;
3704;SDS011;1868;48.918;9.438;2024-01-30T01:13:49;16.33;;;10.70;;
3704;SDS011;1868;48.918;9.438;2024-01-30T01:16:17;15.97;;;10.33;;
3704;SDS011;1868;48.918;9.438;2024-01-30T01:18:46;18.17;;;11.13;;
3704;SDS011;1868;48.918;9.438;2024-01-30T01:21:14;15.03;;;10.10;;
3704;SDS011;1868;48.918;9.438;2024-01-30T01:23:44;15.27;;;10.23;;
3704;SDS011;1868;48.918;9.438;2024-01-30T01:26:13;13.30;;;9.30;;
3704;SDS011;1868;48.918;9.438;2024-01-30T01:28:43;14.40;;;9.50;;
3704;SDS011;1868;48.918;9.438;2024-01-30T01:31:14;21.17;;;11.97;;
3704;SDS011;1868;48.918;9.438;2024-01-30T01:33:45;17.03;;;11.13;;
3704;SDS011;1868;48.918;9.438;2024-01-30T01:36:14;13.00;;;9.60;;
3704;SDS011;1868;48.918;9.438;2024-01-30T01:38:44;12.20;;;8.53;;
3704;SDS011;1868;48.918;9.438;2024-01-30T01:41:13;14.87;;;8.30;;
3704;SDS011;1868;48.918;9.438;2024-01-30T01:43:42;12.67;;;8.33;;
3704;SDS011;1868;48.918;9.438;2024-01-30T01:46:10;13.73;;;8.77;;
3704;SDS011;1868;48.918;9.438;2024-01-30T01:48:40;9.60;;;7.13;;
3704;SDS011;1868;48.918;9.438;2024-01-30T01:51:14;22.50;;;9.30;;
3704;SDS011;1868;48.918;9.438;2024-01-30T01:53:46;14.00;;;8.17;;
3704;SDS011;1868;48.918;9.438;2024-01-30T01:56:15;23.00;;;9.10;;
3704;SDS011;1868;48.918;9.438;2024-01-30T01:58:44;11.90;;;8.77;;
3704;SDS011;1868;48.918;9.438;2024-01-30T02:01:15;15.40;;;8.97;;
3704;SDS011;1868;48.918;9.438;2024-01-30T02:03:48;12.80;;;9.00;;
3704;SDS011;1868;48.918;9.438;2024-01-30T02:06:17;13.73;;;8.70;;
3704;SDS011;1868;48.918;9.438;2024-01-30T02:08:46;12.47;;;8.27;;
3704;SDS011;1868;48.918;9.438;2024-01-30T02:11:15;13.00;;;9.17;;
3704;SDS011;1868;48.918;9.438;2024-01-30T02:13:45;14.50;;;8.10;;
3704;SDS011;1868;48.918;9.438;2024-01-30T02:16:14;15.90;;;8.33;;
3704;SDS011;1868;48.918;9.438;2024-01-30T02:18:43;11.60;;;8.30;;
3704;SDS011;1868;48.918;9.438;2024-01-30T02:21:16;10.70;;;7.93;;
3704;SDS011;1868;48.918;9.438;2024-01-30T02:23:47;15.20;;;8.73;;
3704;SDS011;1868;48.918;9.438;2024-01-30T02:26:17;15.37;;;9.43;;
3704;SDS011;1868;48.918;9.438;2024-01-30T02:28:46;13.80;;;9.73;;
3704;SDS011;1868;48.918;9.438;2024-01-30T02:31:15;15.30;;;10.00;;
3704;SDS011;1868;48.918;9.438;2024-01-30T02:33:44;14.77;;;8.60;;
3704;SDS011;1868;48.918;9.438;2024-01-30T02:36:13;16.47;;;8.97;;
3704;SDS011;1868;48.918;9.438;2024-01-30T02:38:43;14.17;;;8.20;;
3704;SDS011;1868;48.918;9.438;2024-01-30T02:41:14;16.57;;;8.03;;
3704;SDS011;1868;48.918;9.438;2024-01-30T02:43:44;14.40;;;8.83;;
3704;SDS011;1868;48.918;9.438;2024-01-30T02:46:14;11.40;;;8.33;;
3704;SDS011;1868;48.918;9.438;2024-01-30T02:48:43;12.80;;;9.27;;
3704;SDS011;1868;48.918;9.438;2024-01-30T02:51:13;11.77;;;8.73;;
3704;SDS011;1868;48.918;9.438;2024-01-30T02:53:43;16.60;;;8.47;;
3704;SDS011;1868;48.918;9.438;2024-01-30T02:56:12;10.10;;;6.90;;
3704;SDS011;1868;48.918;9.438;2024-01-30T02:58:43;16.17;;;8.60;;
3704;SDS011;1868;48.918;9.438;2024-01-30T03:01:13;12.63;;;8.27;;
3704;SDS011;1868;48.918;9.438;2024-01-30T03:03:41;11.73;;;8.33;;
3704;SDS011;1868;48.918;9.438;2024-01-30T03:06:10;12.50;;;8.50;;
3704;SDS011;1868;48.918;9.438;2024-01-30T03:08:39;12.13;;;7.23;;
3704;SDS011;1868;48.918;9.438;2024-01-30T03:11:09;11.60;;;8.30;;
3704;SDS011;1868;48.918;9.438;2024-01-30T03:13:37;15.67;;;8.27;;
3704;SDS011;1868;48.918;9.438;2024-01-30T03:16:08;12.70;;;8.43;;
3704;SDS011;1868;48.918;9.438;2024-01-30T03:18:38;10.47;;;7.70;;
3704;SDS011;1868;48.918;9.438;2024-01-30T03:21:08;11.20;;;8.37;;
3704;SDS011;1868;48.918;9.438;2024-01-30T03:23:50;12.30;;;7.63;;
3704;SDS011;1868;48.918;9.438;2024-01-30T03:26:24;12.20;;;7.63;;
3704;SDS011;1868;48.918;9.438;2024-01-30T03:28:54;11.70;;;7.60;;
3704;SDS011;1868;48.918;9.438;2024-01-30T03:31:27;13.23;;;7.93;;
3704;SDS011;1868;48.918;9.438;2024-01-30T03:33:58;14.80;;;7.70;;
3704;SDS011;1868;48.918;9.438;2024-01-30T03:36:30;9.50;;;7.30;;
3704;SDS011;1868;48.918;9.438;2024-01-30T03:39:02;9.87;;;7.87;;
3704;SDS011;1868;48.918;9.438;2024-01-30T03:41:33;12.00;;;8.70;;
3704;SDS011;1868;48.918;9.438;2024-01-30T03:44:05;12.40;;;8.87;;
3704;SDS011;1868;48.918;9.438;2024-01-30T03:46:39;11.30;;;8.10;;
3704;SDS011;1868;48.918;9.438;2024-01-30T03:49:10;9.67;;;6.90;;
3704;SDS011;1868;48.918;9.438;2024-01-30T03:51:40;11.40;;;7.70;;
3704;SDS011;1868;48.918;9.438;2024-01-30T03:54:12;9.87;;;7.53;;
3704;SDS011;1868;48.918;9.438;2024-01-30T03:56:42;11.90;;;8.40;;
3704;SDS011;1868;48.918;9.438;2024-01-30T03:59:11;15.83;;;7.90;;
3704;SDS011;1868;48.918;9.438;2024-01-30T04:01:46;9.73;;;7.80;;
3704;SDS011;1868;48.918;9.438;2024-01-30T04:04:18;14.80;;;8.27;;
3704;SDS011;1868;48.918;9.438;2024-01-30T04:06:52;23.13;;;10.27;;
3704;SDS011;1868;48.918;9.438;2024-01-30T04:09:22;21.83;;;11.20;;
3704;SDS011;1868;48.918;9.438;2024-01-30T04:11:57;14.00;;;8.70;;
3704;SDS011;1868;48.918;9.438;2024-01-30T04:14:26;11.87;;;8.57;;
3704;SDS011;1868;48.918;9.438;2024-01-30T04:16:54;11.80;;;7.93;;
3704;SDS011;1868;48.918;9.438;2024-01-30T04:19:28;14.03;;;8.00;;
3704;SDS011;1868;48.918;9.438;2024-01-30T04:22:02;9.93;;;7.30;;
3704;SDS011;1868;48.918;9.438;2024-01-30T04:24:32;12.47;;;8.03;;
3704;SDS011;1868;48.918;9.438;2024-01-30T04:27:03;16.73;;;7.80;;
3704;SDS011;1868;48.918;9.438;2024-01-30T04:29:33;9.30;;;6.97;;
3704;SDS011;1868;48.918;9.438;2024-01-30T04:32:05;10.70;;;8.13;;
3704;SDS011;1868;48.918;9.438;2024-01-30T04:34:42;9.73;;;7.00;;
3704;SDS011;1868;48.918;9.438;2024-01-30T04:37:12;11.37;;;7.73;;
3704;SDS011;1868;48.918;9.438;2024-01-30T04:39:41;18.87;;;8.93;;
3704;SDS011;1868;48.918;9.438;2024-01-30T04:42:11;11.03;;;6.97;;
3704;SDS011;1868;48.918;9.438;2024-01-30T04:44:40;7.90;;;6.73;;
3704;SDS011;1868;48.918;9.438;2024-01-30T04:47:09;13.50;;;6.90;;
3704;SDS011;1868;48.918;9.438;2024-01-30T04:49:39;9.97;;;7.40;;
3704;SDS011;1868;48.918;9.438;2024-01-30T04:52:09;11.67;;;7.97;;
3704;SDS011;1868;48.918;9.438;2024-01-30T04:54:39;11.93;;;7.90;;
3704;SDS011;1868;48.918;9.438;2024-01-30T04:57:18;9.00;;;7.00;;
3704;SDS011;1868;48.918;9.438;2024-01-30T04:59:47;10.20;;;5.53;;
3704;SDS011;1868;48.918;9.438;2024-01-30T05:02:18;13.37;;;7.50;;
3704;SDS011;1868;48.918;9.438;2024-01-30T05:04:50;9.00;;;6.70;;
3704;SDS011;1868;48.918;9.438;2024-01-30T05:07:20;9.90;;;7.10;;
3704;SDS011;1868;48.918;9.438;2024-01-30T05:09:58;14.33;;;7.77;;
3704;SDS011;1868;48.918;9.438;2024-01-30T05:12:34;12.57;;;7.57;;
3704;SDS011;1868;48.918;9.438;2024-01-30T05:15:05;10.97;;;7.30;;
3704;SDS011;1868;48.918;9.438;2024-01-30T05:17:39;9.40;;;7.20;;
3704;SDS011;1868;48.918;9.438;2024-01-30T05:20:09;13.27;;;7.63;;
3704;SDS011;1868;48.918;9.438;2024-01-30T05:22:40;10.03;;;6.50;;
3704;SDS011;1868;48.918;9.438;2024-01-30T05:25:12;11.67;;;7.40;;
3704;SDS011;1868;48.918;9.438;2024-01-30T05:27:44;11.70;;;7.27;;
3704;SDS011;1868;48.918;9.438;2024-01-30T05:30:16;10.60;;;7.40;;
3704;SDS011;1868;48.918;9.438;2024-01-30T05:32:47;10.10;;;7.63;;
3704;SDS011;1868;48.918;9.438;2024-01-30T05:35:16;11.30;;;7.90;;
3704;SDS011;1868;48.918;9.438;2024-01-30T05:37:51;13.40;;;8.77;;
3704;SDS011;1868;48.918;9.438;2024-01-30T05:40:26;11.90;;;6.83;;
3704;SDS011;1868;48.918;9.438;2024-01-30T05:42:57;11.17;;;7.33;;
3704;SDS011;1868;48.918;9.438;2024-01-30T05:45:27;13.77;;;8.50;;
3704;SDS011;1868;48.918;9.438;2024-01-30T05:47:56;12.37;;;7.90;;
3704;SDS011;1868;48.918;9.438;2024-01-30T05:50:24;12.00;;;8.13;;
3704;SDS011;1868;48.918;9.438;2024-01-30T05:52:53;10.23;;;7.73;;
3704;SDS011;1868;48.918;9.438;2024-01-30T05:55:24;13.13;;;7.80;;
3704;SDS011;1868;48.918;9.438;2024-01-30T05:57:56;11.10;;;7.17;;
3704;SDS011;1868;48.918;9.438;2024-01-30T06:00:29;12.13;;;7.87;;
3704;SDS011;1868;48.918;9.438;2024-01-30T06:02:58;15.67;;;7.40;;
3704;SDS011;1868;48.918;9.438;2024-01-30T06:05:27;8.57;;;6.40;;
3704;SDS011;1868;48.918;9.438;2024-01-30T06:07:55;9.30;;;6.77;;
3704;SDS011;1868;48.918;9.438;2024-01-30T06:10:25;8.37;;;6.60;;
3704;SDS011;1868;48.918;9.438;2024-01-30T06:12:54;9.27;;;6.73;;
3704;SDS011;1868;48.918;9.438;2024-01-30T06:15:24;10.20;;;6.97;;
3704;SDS011;1868;48.918;9.438;2024-01-30T06:17:53;10.60;;;6.67;;
3704;SDS011;1868;48.918;9.438;2024-01-30T06:20:22;10.53;;;7.40;;
3704;SDS011;1868;48.918;9.438;2024-01-30T06:22:51;8.60;;;6.60;;
3704;SDS011;1868;48.918;9.438;2024-01-30T06:25:21;10.37;;;7.00;;
3704;SDS011;1868;48.918;9.438;2024-01-30T06:27:49;13.93;;;7.80;;
3704;SDS011;1868;48.918;9.438;2024-01-30T06:30:18;12.53;;;7.60;;
3704;SDS011;1868;48.918;9.438;2024-01-30T06:32:48;14.27;;;8.20;;
3704;SDS011;1868;48.918;9.438;2024-01-30T06:35:17;13.43;;;8.70;;
3704;SDS011;1868;48.918;9.438;2024-01-30T06:37:48;11.47;;;8.83;;
3704;SDS011;1868;48.918;9.438;2024-01-30T06:40:18;9.43;;;7.10;;
3704;SDS011;1868;48.918;9.438;2024-01-30T06:42:47;10.07;;;7.77;;
3704;SDS011;1868;48.918;9.438;2024-01-30T06:45:19;11.07;;;8.30;;
3704;SDS011;1868;48.918;9.438;2024-01-30T06:47:50;11.93;;;7.77;;
3704;SDS011;1868;48.918;9.438;2024-01-30T06:50:22;12.43;;;8.30;;
3704;SDS011;1868;48.918;9.438;2024-01-30T06:52:54;11.73;;;8.17;;
3704;SDS011;1868;48.918;9.438;2024-01-30T06:55:24;15.63;;;8.90;;
3704;SDS011;1868;48.918;9.438;2024-01-30T06:57:53;14.50;;;9.60;;
3704;SDS011;1868;48.918;9.438;2024-01-30T07:00:22;11.50;;;8.60;;
3704;SDS011;1868;48.918;9.438;2024-01-30T07:02:57;18.70;;;8.97;;
3704;SDS011;1868;48.918;9.438;2024-01-30T07:05:29;11.90;;;8.83;;
3704;SDS011;1868;48.918;9.438;2024-01-30T07:08:03;14.53;;;10.57;;
3704;SDS011;1868;48.918;9.438;2024-01-30T07:10:34;18.60;;;10.53;;
3704;SDS011;1868;48.918;9.438;2024-01-30T07:13:04;12.53;;;9.27;;
3704;SDS011;1868;48.918;9.438;2024-01-30T07:15:38;15.77;;;9.57;;
3704;SDS011;1868;48.918;9.438;2024-01-30T07:18:09;14.70;;;8.70;;
3704;SDS011;1868;48.918;9.438;2024-01-30T07:20:38;11.63;;;8.80;;
3704;SDS011;1868;48.918;9.438;2024-01-30T07:23:15;19.30;;;14.20;;
3704;SDS011;1868;48.918;9.438;2024-01-30T07:25:50;23.53;;;14.40;;
3704;SDS011;1868;48.918;9.438;2024-01-30T07:28:20;32.70;;;20.30;;
3704;SDS011;1868;48.918;9.438;2024-01-30T07:30:49;13.20;;;8.60;;
3704;SDS011;1868;48.918;9.438;2024-01-30T07:33:20;19.77;;;9.73;;
3704;SDS011;1868;48.918;9.438;2024-01-30T07:35:48;14.30;;;8.70;;
3704;SDS011;1868;48.918;9.438;2024-01-30T07:38:18;14.50;;;9.90;;
3704;SDS011;1868;48.918;9.438;2024-01-30T07:40:47;13.03;;;9.33;;
3704;SDS011;1868;48.918;9.438;2024-01-30T07:43:15;11.10;;;8.60;;
3704;SDS011;1868;48.918;9.438;2024-01-30T07:45:46;12.47;;;8.83;;
3704;SDS011;1868;48.918;9.438;2024-01-30T07:48:16;10.40;;;8.23;;
3704;SDS011;1868;48.918;9.438;2024-01-30T07:50:47;15.20;;;8.57;;
3704;SDS011;1868;48.918;9.438;2024-01-30T07:53:18;9.90;;;7.57;;
3704;SDS011;1868;48.918;9.438;2024-01-30T07:55:49;10.90;;;7.93;;
3704;SDS011;1868;48.918;9.438;2024-01-30T07:58:18;12.43;;;7.67;;
3704;SDS011;1868;48.918;9.438;2024-01-30T08:00:47;14.60;;;8.43;;
3704;SDS011;1868;48.918;9.438;2024-01-30T08:03:16;14.50;;;9.20;;
3704;SDS011;1868;48.918;9.438;2024-01-30T08:05:47;13.90;;;9.30;;
3704;SDS011;1868;48.918;9.438;2024-01-30T08:08:17;13.60;;;8.17;;
3704;SDS011;1868;48.918;9.438;2024-01-30T08:10:48;16.40;;;9.03;;
3704;SDS011;1868;48.918;9.438;2024-01-30T08:13:18;23.23;;;10.30;;
3704;SDS011;1868;48.918;9.438;2024-01-30T08:15:48;14.77;;;10.17;;
3704;SDS011;1868;48.918;9.438;2024-01-30T08:18:17;23.50;;;11.87;;
3704;SDS011;1868;48.918;9.438;2024-01-30T08:20:47;24.50;;;12.90;;
3704;SDS011;1868;48.918;9.438;2024-01-30T08:23:21;30.77;;;14.93;;
3704;SDS011;1868;48.918;9.438;2024-01-30T08:25:50;31.40;;;13.73;;
3704;SDS011;1868;48.918;9.438;2024-01-30T08:28:20;21.40;;;11.77;;
3704;SDS011;1868;48.918;9.438;2024-01-30T08:30:49;16.13;;;10.47;;
3704;SDS011;1868;48.918;9.438;2024-01-30T08:33:20;15.57;;;10.77;;
3704;SDS011;1868;48.918;9.438;2024-01-30T08:35:59;18.57;;;12.07;;
3704;SDS011;1868;48.918;9.438;2024-01-30T08:38:29;20.93;;;14.23;;
3704;SDS011;1868;48.918;9.438;2024-01-30T08:41:00;27.43;;;17.07;;
3704;SDS011;1868;48.918;9.438;2024-01-30T08:43:32;27.37;;;17.23;;
3704;SDS011;1868;48.918;9.438;2024-01-30T08:46:06;23.70;;;15.10;;
3704;SDS011;1868;48.918;9.438;2024-01-30T08:48:35;28.50;;;16.67;;
3704;SDS011;1868;48.918;9.438;2024-01-30T08:51:07;21.97;;;15.20;;
3704;SDS011;1868;48.918;9.438;2024-01-30T08:53:36;20.50;;;12.73;;
3704;SDS011;1868;48.918;9.438;2024-01-30T08:56:06;12.57;;;9.60;;
3704;SDS011;1868;48.918;9.438;2024-01-30T08:58:35;13.40;;;9.10;;
3704;SDS011;1868;48.918;9.438;2024-01-30T09:01:06;9.57;;;8.57;;
3704;SDS011;1868;48.918;9.438;2024-01-30T09:03:36;8.87;;;7.43;;
3704;SDS011;1868;48.918;9.438;2024-01-30T09:06:10;12.53;;;8.80;;
3704;SDS011;1868;48.918;9.438;2024-01-30T09:08:39;9.50;;;7.83;;
3704;SDS011;1868;48.918;9.438;2024-01-30T09:11:09;13.37;;;9.13;;
3704;SDS011;1868;48.918;9.438;2024-01-30T09:13:39;11.60;;;7.90;;
3704;SDS011;1868;48.918;9.438;2024-01-30T09:16:09;9.63;;;8.10;;
3704;SDS011;1868;48.918;9.438;2024-01-30T09:18:39;9.80;;;8.13;;
3704;SDS011;1868;48.918;9.438;2024-01-30T09:21:16;10.07;;;8.17;;
3704;SDS011;1868;48.918;9.438;2024-01-30T09:23:49;9.10;;;7.33;;
3704;SDS011;1868;48.918;9.438;2024-01-30T09:26:19;18.33;;;7.73;;
3704;SDS011;1868;48.918;9.438;2024-01-30T09:28:52;9.60;;;7.63;;
3704;SDS011;1868;48.918;9.438;2024-01-30T09:31:23;8.40;;;6.60;;
3704;SDS011;1868;48.918;9.438;2024-01-30T09:33:52;8.57;;;6.90;;
3704;SDS011;1868;48.918;9.438;2024-01-30T09:36:25;8.63;;;6.07;;
3704;SDS011;1868;48.918;9.438;2024-01-30T09:38:57;7.83;;;5.50;;
3704;SDS011;1868;48.918;9.438;2024-01-30T09:41:32;6.67;;;5.97;;
3704;SDS011;1868;48.918;9.438;2024-01-30T09:44:04;7.37;;;6.13;;
3704;SDS011;1868;48.918;9.438;2024-01-30T09:46:37;7.63;;;6.50;;
3704;SDS011;1868;48.918;9.438;2024-01-30T09:49:07;7.43;;;6.17;;
3704;SDS011;1868;48.918;9.438;2024-01-30T09:51:40;10.77;;;7.27;;
3704;SDS011;1868;48.918;9.438;2024-01-30T09:54:13;12.00;;;8.70;;
3704;SDS011;1868;48.918;9.438;2024-01-30T09:56:51;10.37;;;7.47;;
3704;SDS011;1868;48.918;9.438;2024-01-30T09:59:20;6.40;;;5.60;;
3704;SDS011;1868;48.918;9.438;2024-01-30T10:01:49;7.10;;;6.10;;
3704;SDS011;1868;48.918;9.438;2024-01-30T10:04:19;8.90;;;5.43;;
3704;SDS011;1868;48.918;9.438;2024-01-30T10:06:51;7.23;;;5.40;;
3704;SDS011;1868;48.918;9.438;2024-01-30T10:09:20;10.27;;;6.80;;
3704;SDS011;1868;48.918;9.438;2024-01-30T10:11:50;8.17;;;6.20;;
3704;SDS011;1868;48.918;9.438;2024-01-30T10:14:25;8.13;;;5.97;;
3704;SDS011;1868;48.918;9.438;2024-01-30T10:16:55;11.53;;;8.30;;
3704;SDS011;1868;48.918;9.438;2024-01-30T10:19:25;11.97;;;8.00;;
3704;SDS011;1868;48.918;9.438;2024-01-30T10:21:55;9.07;;;7.40;;
3704;SDS011;1868;48.918;9.438;2024-01-30T10:24:26;11.90;;;7.40;;
3704;SDS011;1868;48.918;9.438;2024-01-30T10:26:55;11.80;;;6.93;;
3704;SDS011;1868;48.918;9.438;2024-01-30T10:29:28;10.10;;;7.13;;
3704;SDS011;1868;48.918;9.438;2024-01-30T10:32:00;13.20;;;7.57;;
3704;SDS011;1868;48.918;9.438;2024-01-30T10:34:29;8.83;;;6.53;;
3704;SDS011;1868;48.918;9.438;2024-01-30T10:37:06;9.13;;;6.20;;
3704;SDS011;1868;48.918;9.438;2024-01-30T10:39:40;11.87;;;7.00;;
3704;SDS011;1868;48.918;9.438;2024-01-30T10:42:13;12.17;;;8.17;;
3704;SDS011;1868;48.918;9.438;2024-01-30T10:44:48;10.80;;;7.90;;
3704;SDS011;1868;48.918;9.438;2024-01-30T10:47:25;9.63;;;7.77;;
3704;SDS011;1868;48.918;9.438;2024-01-30T10:49:56;10.80;;;7.63;;
3704;SDS011;1868;48.918;9.438;2024-01-30T10:52:27;14.37;;;8.30;;
3704;SDS011;1868;48.918;9.438;2024-01-30T10:54:57;8.20;;;7.23;;
3704;SDS011;1868;48.918;9.438;2024-01-30T10:57:27;8.60;;;7.67;;
3704;SDS011;1868;48.918;9.438;2024-01-30T10:59:56;11.60;;;7.80;;
3704;SDS011;1868;48.918;9.438;2024-01-30T11:02:27;10.37;;;7.50;;
3704;SDS011;1868;48.918;9.438;2024-01-30T11:04:57;7.80;;;6.77;;
3704;SDS011;1868;48.918;9.438;2024-01-30T11:07:28;10.23;;;6.67;;
3704;SDS011;1868;48.918;9.438;2024-01-30T11:10:01;11.77;;;7.50;;
3704;SDS011;1868;48.918;9.438;2024-01-30T11:12:38;10.03;;;6.73;;
3704;SDS011;1868;48.918;9.438;2024-01-30T11:15:11;11.67;;;7.00;;
3704;SDS011;1868;48.918;9.438;2024-01-30T11:17:45;8.63;;;7.30;;
3704;SDS011;1868;48.918;9.438;2024-01-30T11:20:20;8.40;;;7.20;;
3704;SDS011;1868;48.918;9.438;2024-01-30T11:22:54;18.60;;;7.27;;
3704;SDS011;1868;48.918;9.438;2024-01-30T11:25:25;14.23;;;7.60;;
3704;SDS011;1868;48.918;9.438;2024-01-30T11:27:55;9.30;;;7.93;;
3704;SDS011;1868;48.918;9.438;2024-01-30T11:30:25;9.63;;;7.03;;
3704;SDS011;1868;48.918;9.438;2024-01-30T11:32:59;9.07;;;6.90;;
3704;SDS011;1868;48.918;9.438;2024-01-30T11:35:35;10.40;;;7.03;;
3704;SDS011;1868;48.918;9.438;2024-01-30T11:38:09;10.10;;;6.50;;
3704;SDS011;1868;48.918;9.438;2024-01-30T11:40:40;9.80;;;6.20;;
3704;SDS011;1868;48.918;9.438;2024-01-30T11:43:10;9.63;;;6.77;;
3704;SDS011;1868;48.918;9.438;2024-01-30T11:45:41;10.00;;;6.50;;
3704;SDS011;1868;48.918;9.438;2024-01-30T11:48:12;6.60;;;6.00;;
3704;SDS011;1868;48.918;9.438;2024-01-30T11:50:41;8.47;;;7.10;;
3704;SDS011;1868;48.918;9.438;2024-01-30T11:53:12;7.70;;;6.70;;
3704;SDS011;1868;48.918;9.438;2024-01-30T11:55:41;6.67;;;5.60;;
3704;SDS011;1868;48.918;9.438;2024-01-30T11:58:10;11.87;;;6.80;;
3704;SDS011;1868;48.918;9.438;2024-01-30T12:00:40;7.43;;;5.90;;
3704;SDS011;1868;48.918;9.438;2024-01-30T12:03:10;6.67;;;5.97;;
3704;SDS011;1868;48.918;9.438;2024-01-30T12:05:41;8.97;;;6.07;;
3704;SDS011;1868;48.918;9.438;2024-01-30T12:08:15;8.00;;;6.10;;
3704;SDS011;1868;48.918;9.438;2024-01-30T12:10:45;7.77;;;5.53;;
3704;SDS011;1868;48.918;9.438;2024-01-30T12:13:14;9.50;;;6.83;;
3704;SDS011;1868;48.918;9.438;2024-01-30T12:15:43;8.80;;;7.20;;
3704;SDS011;1868;48.918;9.438;2024-01-30T12:18:12;5.93;;;5.40;;
3704;SDS011;1868;48.918;9.438;2024-01-30T12:20:42;10.87;;;5.50;;
3704;SDS011;1868;48.918;9.438;2024-01-30T12:23:11;8.20;;;5.50;;
3704;SDS011;1868;48.918;9.438;2024-01-30T12:25:43;6.90;;;4.90;;
3704;SDS011;1868;48.918;9.438;2024-01-30T12:28:12;7.20;;;4.80;;
3704;SDS011;1868;48.918;9.438;2024-01-30T12:30:45;5.70;;;4.80;;
3704;SDS011;1868;48.918;9.438;2024-01-30T12:33:16;14.03;;;5.50;;
3704;SDS011;1868;48.918;9.438;2024-01-30T12:35:47;7.37;;;5.70;;
3704;SDS011;1868;48.918;9.438;2024-01-30T12:38:28;6.83;;;5.93;;
3704;SDS011;1868;48.918;9.438;2024-01-30T12:41:00;7.73;;;6.20;;
3704;SDS011;1868;48.918;9.438;2024-01-30T12:43:29;10.97;;;6.50;;
3704;SDS011;1868;48.918;9.438;2024-01-30T12:46:05;6.13;;;5.40;;
3704;SDS011;1868;48.918;9.438;2024-01-30T12:48:34;8.00;;;5.43;;
3704;SDS011;1868;48.918;9.438;2024-01-30T12:51:03;9.13;;;6.00;;
3704;SDS011;1868;48.918;9.438;2024-01-30T12:53:35;6.60;;;5.80;;
3704;SDS011;1868;48.918;9.438;2024-01-30T12:56:07;10.73;;;6.00;;
3704;SDS011;1868;48.918;9.438;2024-01-30T12:58:36;7.50;;;5.47;;
3704;SDS011;1868;48.918;9.438;2024-01-30T13:01:08;7.13;;;6.33;;
3704;SDS011;1868;48.918;9.438;2024-01-30T13:03:38;8.70;;;5.33;;
3704;SDS011;1868;48.918;9.438;2024-01-30T13:06:07;9.30;;;6.80;;
3704;SDS011;1868;48.918;9.438;2024-01-30T13:08:37;8.80;;;5.63;;
3704;SDS011;1868;48.918;9.438;2024-01-30T13:11:08;10.50;;;6.13;;
3704;SDS011;1868;48.918;9.438;2024-01-30T13:13:47;9.60;;;6.47;;
3704;SDS011;1868;48.918;9.438;2024-01-30T13:16:15;6.43;;;5.30;;
3704;SDS011;1868;48.918;9.438;2024-01-30T13:18:49;5.10;;;4.30;;
3704;SDS011;1868;48.918;9.438;2024-01-30T13:21:18;6.40;;;4.53;;
3704;SDS011;1868;48.918;9.438;2024-01-30T13:23:49;4.13;;;3.40;;
3704;SDS011;1868;48.918;9.438;2024-01-30T13:26:22;3.90;;;3.50;;
3704;SDS011;1868;48.918;9.438;2024-01-30T13:28:52;5.33;;;4.07;;
3704;SDS011;1868;48.918;9.438;2024-01-30T13:31:21;3.50;;;3.20;;
3704;SDS011;1868;48.918;9.438;2024-01-30T13:33:50;5.33;;;4.10;;
3704;SDS011;1868;48.918;9.438;2024-01-30T13:36:22;6.90;;;4.37;;
3704;SDS011;1868;48.918;9.438;2024-01-30T13:38:52;6.23;;;4.60;;
3704;SDS011;1868;48.918;9.438;2024-01-30T13:41:22;7.13;;;4.43;;
3704;SDS011;1868;48.918;9.438;2024-01-30T13:43:50;13.63;;;4.50;;
3704;SDS011;1868;48.918;9.438;2024-01-30T13:46:21;5.00;;;4.40;;
3704;SDS011;1868;48.918;9.438;2024-01-30T13:48:50;7.00;;;4.40;;
3704;SDS011;1868;48.918;9.438;2024-01-30T13:51:19;12.20;;;4.90;;
3704;SDS011;1868;48.918;9.438;2024-01-30T13:53:47;8.90;;;5.07;;
3704;SDS011;1868;48.918;9.438;2024-01-30T13:56:19;10.17;;;4.60;;
3704;SDS011;1868;48.918;9.438;2024-01-30T13:58:49;4.20;;;3.63;;
3704;SDS011;1868;48.918;9.438;2024-01-30T14:01:21;7.20;;;3.83;;
3704;SDS011;1868;48.918;9.438;2024-01-30T14:03:52;5.67;;;3.57;;
3704;SDS011;1868;48.918;9.438;2024-01-30T14:06:21;5.53;;;3.60;;
3704;SDS011;1868;48.918;9.438;2024-01-30T14:09:05;5.37;;;3.87;;
3704;SDS011;1868;48.918;9.438;2024-01-30T14:11:36;9.63;;;3.80;;
3704;SDS011;1868;48.918;9.438;2024-01-30T14:14:04;4.17;;;3.60;;
3704;SDS011;1868;48.918;9.438;2024-01-30T14:16:37;5.63;;;4.13;;
3704;SDS011;1868;48.918;9.438;2024-01-30T14:19:06;4.27;;;3.60;;
3704;SDS011;1868;48.918;9.438;2024-01-30T14:21:36;3.70;;;3.40;;
3704;SDS011;1868;48.918;9.438;2024-01-30T14:24:08;6.90;;;3.70;;
3704;SDS011;1868;48.918;9.438;2024-01-30T14:26:44;4.97;;;3.77;;
3704;SDS011;1868;48.918;9.438;2024-01-30T14:29:17;3.57;;;3.27;;
3704;SDS011;1868;48.918;9.438;2024-01-30T14:31:51;4.93;;;3.97;;
3704;SDS011;1868;48.918;9.438;2024-01-30T14:34:21;8.93;;;3.60;;
3704;SDS011;1868;48.918;9.438;2024-01-30T14:36:51;4.97;;;3.50;;
3704;SDS011;1868;48.918;9.438;2024-01-30T14:39:20;7.23;;;4.10;;
3704;SDS011;1868;48.918;9.438;2024-01-30T14:41:50;6.27;;;4.30;;
3704;SDS011;1868;48.918;9.438;2024-01-30T14:44:19;5.60;;;3.90;;
3704;SDS011;1868;48.918;9.438;2024-01-30T14:46:48;6.67;;;4.07;;
3704;SDS011;1868;48.918;9.438;2024-01-30T14:49:17;8.13;;;4.37;;
3704;SDS011;1868;48.918;9.438;2024-01-30T14:51:45;4.40;;;3.80;;
3704;SDS011;1868;48.918;9.438;2024-01-30T14:54:14;6.37;;;4.23;;
3704;SDS011;1868;48.918;9.438;2024-01-30T14:56:43;5.20;;;3.50;;
3704;SDS011;1868;48.918;9.438;2024-01-30T14:59:14;17.20;;;12.50;;
3704;SDS011;1868;48.918;9.438;2024-01-30T15:01:43;6.67;;;5.83;;
3704;SDS011;1868;48.918;9.438;2024-01-30T15:04:12;6.03;;;4.37;;
3704;SDS011;1868;48.918;9.438;2024-01-30T15:06:40;8.30;;;4.13;;
3704;SDS011;1868;48.918;9.438;2024-01-30T15:09:12;8.83;;;4.43;;
3704;SDS011;1868;48.918;9.438;2024-01-30T15:11:41;7.13;;;4.50;;
3704;SDS011;1868;48.918;9.438;2024-01-30T15:14:11;4.77;;;4.30;;
3704;SDS011;1868;48.918;9.438;2024-01-30T15:16:42;6.80;;;3.80;;
3704;SDS011;1868;48.918;9.438;2024-01-30T15:19:10;7.17;;;4.93;;
3704;SDS011;1868;48.918;9.438;2024-01-30T15:21:39;9.57;;;4.90;;
3704;SDS011;1868;48.918;9.438;2024-01-30T15:24:07;4.63;;;4.20;;
3704;SDS011;1868;48.918;9.438;2024-01-30T15:26:39;7.60;;;5.07;;